createdAt,value
2023-05-09T00:02:10.435Z,14.65
2023-05-09T00:04:38.398Z,14.58
2023-05-09T00:07:06.334Z,14.57
2023-05-09T00:09:35.544Z,14.53
2023-05-09T00:12:04.091Z,14.48
2023-05-09T00:14:33.481Z,14.43
2023-05-09T00:17:01.395Z,14.39
2023-05-09T00:19:29.338Z,14.38
2023-05-09T00:21:57.193Z,14.35
2023-05-09T00:24:25.165Z,14.35
2023-05-09T00:26:54.613Z,14.33
2023-05-09T00:29:22.435Z,14.32
2023-05-09T00:31:50.498Z,14.33
2023-05-09T00:34:18.439Z,14.30
2023-05-09T00:36:46.360Z,14.29
2023-05-09T00:39:14.256Z,14.31
2023-05-09T00:41:42.079Z,14.27
2023-05-09T00:44:11.454Z,14.20
2023-05-09T00:46:39.670Z,14.15
2023-05-09T00:49:08.134Z,14.15
2023-05-09T00:51:37.609Z,14.12
2023-05-09T00:54:07.606Z,14.12
2023-05-09T00:56:36.999Z,14.11
2023-05-09T00:59:06.362Z,14.11
2023-05-09T01:01:35.624Z,14.09
2023-05-09T01:04:03.966Z,14.11
2023-05-09T01:06:39.839Z,14.09
2023-05-09T01:09:20.351Z,14.06
2023-05-09T01:11:57.040Z,14.09
2023-05-09T01:14:34.792Z,14.05
2023-05-09T01:17:10.788Z,14.06
2023-05-09T01:19:53.389Z,14.08
2023-05-09T01:22:23.008Z,14.07
2023-05-09T01:25:07.217Z,14.05
2023-05-09T01:27:45.304Z,14.09
2023-05-09T01:30:17.155Z,14.10
2023-05-09T01:32:50.851Z,14.09
2023-05-09T01:35:19.756Z,14.09
2023-05-09T01:37:52.031Z,14.06
2023-05-09T01:40:22.329Z,14.06
2023-05-09T01:42:53.366Z,14.06
2023-05-09T01:45:24.833Z,14.05
2023-05-09T01:47:54.194Z,14.04
2023-05-09T01:50:23.510Z,14.02
2023-05-09T01:52:56.023Z,14.05
2023-05-09T01:55:26.823Z,14.03
2023-05-09T01:57:55.972Z,14.04
2023-05-09T02:00:26.051Z,14.05
2023-05-09T02:02:55.569Z,14.05
2023-05-09T02:05:27.178Z,14.03
2023-05-09T02:07:57.241Z,14.02
2023-05-09T02:10:26.643Z,14.00
2023-05-09T02:12:55.194Z,14.05
2023-05-09T02:15:25.966Z,14.04
2023-05-09T02:17:54.234Z,14.05
2023-05-09T02:20:22.569Z,14.06
2023-05-09T02:22:51.695Z,14.07
2023-05-09T02:25:20.846Z,14.07
2023-05-09T02:27:48.763Z,14.09
2023-05-09T02:30:21.042Z,14.05
2023-05-09T02:32:52.873Z,14.08
2023-05-09T02:35:22.798Z,14.08
2023-05-09T02:37:50.760Z,14.12
2023-05-09T02:40:20.318Z,14.10
2023-05-09T02:42:48.649Z,14.11
2023-05-09T02:45:17.150Z,14.03
2023-05-09T02:47:45.134Z,14.05
2023-05-09T02:50:14.620Z,14.01
2023-05-09T02:52:43.492Z,13.99
2023-05-09T02:55:11.719Z,13.98
2023-05-09T02:57:41.735Z,13.98
2023-05-09T03:00:10.721Z,13.97
2023-05-09T03:02:39.321Z,13.98
2023-05-09T03:05:11.920Z,13.98
2023-05-09T03:07:41.270Z,13.97
2023-05-09T03:10:11.370Z,13.97
2023-05-09T03:12:39.592Z,13.99
2023-05-09T03:15:08.968Z,14.00
2023-05-09T03:17:38.703Z,13.99
2023-05-09T03:20:10.316Z,14.00
2023-05-09T03:22:38.174Z,14.00
2023-05-09T03:25:10.841Z,13.99
2023-05-09T03:27:39.917Z,14.00
2023-05-09T03:30:12.415Z,14.01
2023-05-09T03:32:40.912Z,14.03
2023-05-09T03:35:09.390Z,14.05
2023-05-09T03:37:37.348Z,14.03
2023-05-09T03:40:08.908Z,14.06
2023-05-09T03:42:44.316Z,14.08
2023-05-09T03:45:13.246Z,14.10
2023-05-09T03:47:42.380Z,14.05
2023-05-09T03:50:11.634Z,14.02
2023-05-09T03:52:40.207Z,14.05
2023-05-09T03:55:09.177Z,14.02
2023-05-09T03:57:38.396Z,14.06
2023-05-09T04:00:11.103Z,14.01
2023-05-09T04:02:42.321Z,14.02
2023-05-09T04:05:17.694Z,14.04
2023-05-09T04:07:46.548Z,14.04
2023-05-09T04:10:15.459Z,14.05
2023-05-09T04:12:43.751Z,14.05
2023-05-09T04:15:13.896Z,14.09
2023-05-09T04:17:42.168Z,14.11
2023-05-09T04:20:11.713Z,14.11
2023-05-09T04:22:40.688Z,14.11
2023-05-09T04:25:12.432Z,14.09
2023-05-09T04:27:40.474Z,14.13
2023-05-09T04:30:09.602Z,14.11
2023-05-09T04:32:39.587Z,14.14
2023-05-09T04:35:09.234Z,14.15
2023-05-09T04:37:41.691Z,14.14
2023-05-09T04:40:11.557Z,14.16
2023-05-09T04:42:49.244Z,14.21
2023-05-09T04:45:17.885Z,14.19
2023-05-09T04:47:47.405Z,14.21
2023-05-09T04:50:16.512Z,14.32
2023-05-09T04:52:44.358Z,14.25
2023-05-09T04:55:12.505Z,14.28
2023-05-09T04:57:44.951Z,14.33
2023-05-09T05:00:14.901Z,14.32
2023-05-09T05:02:42.981Z,14.32
2023-05-09T05:05:13.086Z,14.37
2023-05-09T05:07:43.861Z,14.41
2023-05-09T05:10:15.778Z,14.44
2023-05-09T05:12:47.919Z,14.44
2023-05-09T05:15:17.596Z,14.44
2023-05-09T05:17:47.454Z,14.51
2023-05-09T05:20:19.916Z,14.54
2023-05-09T05:22:49.926Z,14.62
2023-05-09T05:25:19.099Z,14.69
2023-05-09T05:27:49.141Z,14.76
2023-05-09T05:30:17.633Z,14.82
2023-05-09T05:32:45.701Z,14.86
2023-05-09T05:35:15.882Z,14.94
2023-05-09T05:37:47.040Z,15.04
2023-05-09T05:40:16.377Z,15.05
2023-05-09T05:42:46.712Z,15.16
2023-05-09T05:45:15.144Z,15.26
2023-05-09T05:47:47.631Z,15.37
2023-05-09T05:50:15.833Z,15.38
2023-05-09T05:52:45.422Z,15.36
2023-05-09T05:55:16.576Z,15.53
2023-05-09T05:57:44.661Z,15.52
2023-05-09T06:00:16.505Z,15.60
2023-05-09T06:02:52.362Z,15.72
2023-05-09T06:05:26.437Z,15.69
2023-05-09T06:07:55.865Z,15.69
2023-05-09T06:10:23.762Z,15.71
2023-05-09T06:12:51.596Z,15.95
2023-05-09T06:15:19.557Z,15.82
2023-05-09T06:17:50.251Z,15.77
2023-05-09T06:20:18.446Z,15.78
2023-05-09T06:22:46.332Z,15.79
2023-05-09T06:25:15.996Z,15.77
2023-05-09T06:27:44.720Z,15.93
2023-05-09T06:30:24.762Z,15.91
2023-05-09T06:32:54.051Z,16.01
2023-05-09T06:35:22.139Z,15.98
2023-05-09T06:37:50.255Z,16.06
2023-05-09T06:40:19.775Z,16.05
2023-05-09T06:42:47.686Z,16.27
2023-05-09T06:45:16.850Z,16.34
2023-05-09T06:47:45.091Z,16.52
2023-05-09T06:50:13.263Z,16.91
2023-05-09T06:52:41.164Z,17.69
2023-05-09T06:55:10.472Z,18.12
2023-05-09T06:57:40.408Z,18.42
2023-05-09T07:00:09.386Z,18.53
2023-05-09T07:02:41.516Z,18.66
2023-05-09T07:05:10.517Z,18.99
2023-05-09T07:07:38.472Z,18.64
2023-05-09T07:10:11.914Z,18.52
2023-05-09T07:12:42.002Z,18.51
2023-05-09T07:15:11.188Z,18.34
2023-05-09T07:17:39.459Z,18.61
2023-05-09T07:20:08.561Z,18.33
2023-05-09T07:22:37.367Z,18.33
2023-05-09T07:25:08.150Z,18.16
2023-05-09T07:27:36.366Z,18.11
2023-05-09T07:30:06.558Z,18.44
2023-05-09T07:32:34.659Z,18.49
2023-05-09T07:35:03.157Z,18.53
2023-05-09T07:37:31.138Z,18.34
2023-05-09T07:39:59.097Z,18.46
2023-05-09T07:42:27.048Z,18.59
2023-05-09T07:44:55.111Z,18.98
2023-05-09T07:47:24.686Z,19.20
2023-05-09T07:49:52.690Z,18.63
2023-05-09T07:52:20.627Z,18.80
2023-05-09T07:54:48.675Z,19.12
2023-05-09T07:57:17.213Z,19.71
2023-05-09T07:59:45.156Z,19.78
2023-05-09T08:02:13.106Z,21.18
2023-05-09T08:04:42.540Z,21.89
2023-05-09T08:07:11.798Z,21.15
2023-05-09T08:09:39.846Z,20.67
2023-05-09T08:12:08.264Z,20.99
2023-05-09T08:14:36.122Z,21.51
2023-05-09T08:17:04.086Z,22.19
2023-05-09T08:19:32.037Z,21.78
2023-05-09T08:22:01.510Z,21.98
2023-05-09T08:24:29.427Z,21.68
2023-05-09T08:26:57.283Z,21.56
2023-05-09T08:29:25.256Z,20.86
2023-05-09T08:31:53.420Z,20.18
2023-05-09T08:34:22.018Z,19.89
2023-05-09T08:36:49.929Z,19.68
2023-05-09T08:39:19.391Z,20.02
2023-05-09T08:41:47.544Z,19.77
2023-05-09T08:44:15.697Z,20.00
2023-05-09T08:46:45.659Z,20.02
2023-05-09T08:49:13.762Z,19.68
2023-05-09T08:51:42.210Z,19.68
2023-05-09T08:54:11.230Z,19.70
2023-05-09T08:56:40.969Z,19.78
2023-05-09T08:59:09.150Z,20.15
2023-05-09T09:01:37.235Z,20.81
2023-05-09T09:04:07.900Z,20.42
2023-05-09T09:06:36.896Z,21.01
2023-05-09T09:09:07.189Z,21.34
2023-05-09T09:11:36.378Z,21.61
2023-05-09T09:14:11.846Z,21.03
2023-05-09T09:16:41.258Z,21.16
2023-05-09T09:19:13.178Z,21.20
2023-05-09T09:21:43.561Z,21.33
2023-05-09T09:24:14.475Z,20.42
2023-05-09T09:26:48.445Z,20.74
2023-05-09T09:29:18.730Z,20.96
2023-05-09T09:31:47.347Z,20.92
2023-05-09T09:34:21.540Z,21.11
2023-05-09T09:36:49.825Z,21.25
2023-05-09T09:39:17.745Z,20.86
2023-05-09T09:41:45.889Z,20.45
2023-05-09T09:44:15.787Z,20.76
2023-05-09T09:46:46.665Z,21.72
2023-05-09T09:49:15.498Z,21.93
2023-05-09T09:51:43.874Z,22.39
2023-05-09T09:54:13.380Z,22.23
2023-05-09T09:56:42.877Z,21.96
2023-05-09T09:59:12.529Z,21.94
2023-05-09T10:02:00.808Z,21.12
2023-05-09T10:04:31.040Z,21.13
2023-05-09T10:07:00.843Z,21.44
2023-05-09T10:09:29.378Z,21.98
2023-05-09T10:11:59.896Z,21.78
2023-05-09T10:14:28.002Z,21.98
2023-05-09T10:16:57.764Z,22.85
2023-05-09T10:19:29.919Z,23.42
2023-05-09T10:21:59.786Z,21.94
2023-05-09T10:24:30.064Z,22.20
2023-05-09T10:27:05.152Z,22.28
2023-05-09T10:29:36.463Z,22.71
2023-05-09T10:32:12.813Z,23.61
2023-05-09T10:34:45.147Z,24.06
2023-05-09T10:37:13.657Z,23.46
2023-05-09T10:39:42.848Z,23.51
2023-05-09T10:42:11.427Z,22.97
2023-05-09T10:44:40.097Z,22.18
2023-05-09T10:47:08.680Z,22.56
2023-05-09T10:49:37.387Z,22.87
2023-05-09T10:52:06.916Z,22.96
2023-05-09T10:54:37.913Z,22.35
2023-05-09T10:57:10.131Z,22.64
2023-05-09T10:59:40.027Z,22.74
2023-05-09T11:02:14.147Z,22.92
2023-05-09T11:04:44.128Z,23.03
2023-05-09T11:07:26.300Z,22.99
2023-05-09T11:10:08.079Z,22.28
2023-05-09T11:12:36.061Z,21.68
2023-05-09T11:15:09.150Z,21.71
2023-05-09T11:17:39.713Z,22.16
2023-05-09T11:20:09.683Z,22.03
2023-05-09T11:22:47.184Z,22.60
2023-05-09T11:25:17.017Z,22.51
2023-05-09T11:27:46.929Z,22.68
2023-05-09T11:30:16.669Z,22.51
2023-05-09T11:32:47.529Z,22.67
2023-05-09T11:35:17.649Z,22.65
2023-05-09T11:37:49.189Z,22.75
2023-05-09T11:40:18.417Z,22.67
2023-05-09T11:42:49.390Z,22.59
2023-05-09T11:45:18.397Z,22.50
2023-05-09T11:47:47.431Z,22.75
2023-05-09T11:50:17.169Z,22.69
2023-05-09T11:52:45.165Z,22.76
2023-05-09T11:55:16.600Z,22.78
2023-05-09T11:57:47.798Z,23.14
2023-05-09T12:00:18.974Z,23.15
2023-05-09T12:02:47.706Z,23.27
2023-05-09T12:05:17.607Z,23.52
2023-05-09T12:07:46.338Z,23.94
2023-05-09T12:10:17.383Z,23.94
2023-05-09T12:12:47.276Z,23.66
2023-05-09T12:15:16.786Z,23.70
2023-05-09T12:17:48.164Z,23.15
2023-05-09T12:20:17.725Z,23.79
2023-05-09T12:22:45.900Z,23.87
2023-05-09T12:25:15.397Z,23.74
2023-05-09T12:27:43.562Z,24.30
2023-05-09T12:30:15.895Z,24.12
2023-05-09T12:32:44.268Z,24.27
2023-05-09T12:35:12.428Z,24.49
2023-05-09T12:37:40.398Z,24.96
2023-05-09T12:40:12.836Z,23.93
2023-05-09T12:42:46.188Z,24.13
2023-05-09T12:45:14.806Z,23.40
2023-05-09T12:47:43.009Z,23.76
2023-05-09T12:50:13.192Z,23.53
2023-05-09T12:53:01.337Z,23.56
2023-05-09T12:55:31.638Z,23.84
2023-05-09T12:58:03.196Z,24.05
2023-05-09T13:00:43.726Z,23.66
2023-05-09T13:03:22.702Z,23.21
2023-05-09T13:05:58.808Z,23.03
2023-05-09T13:08:28.322Z,23.71
2023-05-09T13:11:07.890Z,23.75
2023-05-09T13:13:44.049Z,23.74
2023-05-09T13:16:13.429Z,23.66
2023-05-09T13:18:43.638Z,23.51
2023-05-09T13:21:11.527Z,23.64
2023-05-09T13:23:39.616Z,23.87
2023-05-09T13:26:07.515Z,23.79
2023-05-09T13:28:35.397Z,22.98
2023-05-09T13:31:04.872Z,23.17
2023-05-09T13:33:33.005Z,22.71
2023-05-09T13:36:01.026Z,23.20
2023-05-09T13:38:32.111Z,22.72
2023-05-09T13:41:00.367Z,22.87
2023-05-09T13:43:28.808Z,23.65
2023-05-09T13:45:56.738Z,23.74
2023-05-09T13:48:26.044Z,23.68
2023-05-09T13:50:54.093Z,23.70
2023-05-09T13:53:22.239Z,23.00
2023-05-09T13:55:50.192Z,22.97
2023-05-09T13:58:18.231Z,22.73
2023-05-09T14:00:46.359Z,22.50
2023-05-09T14:03:14.246Z,22.67
2023-05-09T14:05:43.776Z,22.84
2023-05-09T14:08:12.401Z,22.93
2023-05-09T14:10:40.544Z,22.74
2023-05-09T14:13:09.064Z,22.76
2023-05-09T14:15:36.998Z,22.38
2023-05-09T14:18:05.397Z,22.88
2023-05-09T14:20:36.194Z,22.75
2023-05-09T14:23:05.705Z,22.90
2023-05-09T14:25:33.674Z,22.52
2023-05-09T14:28:01.556Z,22.40
2023-05-09T14:30:29.501Z,21.90
2023-05-09T14:32:57.395Z,22.03
2023-05-09T14:35:25.492Z,22.20
2023-05-09T14:37:53.396Z,22.43
2023-05-09T14:40:22.933Z,21.98
2023-05-09T14:42:50.907Z,20.09
2023-05-09T14:45:18.940Z,19.38
2023-05-09T14:47:48.097Z,19.41
2023-05-09T14:50:17.038Z,18.87
2023-05-09T14:52:45.317Z,19.03
2023-05-09T14:55:13.441Z,18.73
2023-05-09T14:57:42.904Z,18.41
2023-05-09T15:00:20.572Z,18.35
2023-05-09T15:02:50.584Z,18.44
2023-05-09T15:05:18.902Z,18.18
2023-05-09T15:07:47.151Z,17.84
2023-05-09T15:10:17.998Z,17.62
2023-05-09T15:12:47.603Z,17.50
2023-05-09T15:15:17.347Z,17.28
2023-05-09T15:17:46.406Z,17.26
2023-05-09T15:20:16.293Z,17.32
2023-05-09T15:22:45.053Z,17.55
2023-05-09T15:25:13.019Z,17.72
2023-05-09T15:27:41.143Z,17.66
2023-05-09T15:30:11.797Z,17.66
2023-05-09T15:32:42.788Z,17.94
2023-05-09T15:35:11.020Z,17.95
2023-05-09T15:37:39.370Z,17.84
2023-05-09T15:40:09.264Z,18.02
2023-05-09T15:42:37.500Z,17.91
2023-05-09T15:45:06.499Z,17.94
2023-05-09T15:47:36.071Z,18.07
2023-05-09T15:50:04.562Z,17.97
2023-05-09T15:52:32.579Z,18.02
2023-05-09T15:55:00.935Z,18.05
2023-05-09T15:57:29.047Z,18.17
2023-05-09T15:59:56.913Z,18.16
2023-05-09T16:02:24.900Z,18.07
2023-05-09T16:04:54.174Z,18.09
2023-05-09T16:07:22.080Z,17.94
2023-05-09T16:09:50.158Z,17.86
2023-05-09T16:12:18.074Z,17.85
2023-05-09T16:14:45.979Z,17.68
2023-05-09T16:17:13.975Z,17.59
2023-05-09T16:19:42.411Z,17.61
2023-05-09T16:22:11.851Z,17.51
2023-05-09T16:24:39.731Z,17.38
2023-05-09T16:27:07.641Z,17.43
2023-05-09T16:29:35.861Z,17.48
2023-05-09T16:32:03.898Z,17.40
2023-05-09T16:34:32.053Z,17.48
2023-05-09T16:37:00.031Z,17.33
2023-05-09T16:39:29.544Z,17.45
2023-05-09T16:41:58.091Z,17.55
2023-05-09T16:44:26.573Z,17.61
2023-05-09T16:46:54.603Z,17.55
2023-05-09T16:49:22.555Z,17.60
2023-05-09T16:51:50.595Z,17.50
2023-05-09T16:54:18.576Z,17.46
2023-05-09T16:56:47.898Z,17.40
2023-05-09T16:59:17.395Z,17.25
2023-05-09T17:01:46.417Z,17.14
2023-05-09T17:04:14.708Z,17.20
2023-05-09T17:06:42.624Z,17.25
2023-05-09T17:09:10.559Z,17.30
2023-05-09T17:11:38.624Z,17.23
2023-05-09T17:14:07.946Z,17.25
2023-05-09T17:16:37.995Z,17.17
2023-05-09T17:19:06.303Z,17.23
2023-05-09T17:21:34.189Z,17.10
2023-05-09T17:24:03.061Z,17.02
2023-05-09T17:26:31.785Z,17.11
2023-05-09T17:28:59.747Z,16.99
2023-05-09T17:31:29.234Z,16.91
2023-05-09T17:33:57.156Z,16.73
2023-05-09T17:36:25.738Z,16.78
2023-05-09T17:38:53.716Z,16.73
2023-05-09T17:41:22.185Z,16.75
2023-05-09T17:43:51.971Z,16.78
2023-05-09T17:46:20.033Z,16.63
2023-05-09T17:48:49.669Z,16.62
2023-05-09T17:51:17.940Z,16.61
2023-05-09T17:53:46.833Z,16.52
2023-05-09T17:56:14.950Z,16.58
2023-05-09T17:58:43.183Z,16.36
2023-05-09T18:01:11.741Z,16.51
2023-05-09T18:03:39.723Z,16.39
2023-05-09T18:06:09.210Z,16.39
2023-05-09T18:08:37.249Z,16.39
2023-05-09T18:11:05.551Z,16.34
2023-05-09T18:13:34.456Z,16.26
2023-05-09T18:16:02.757Z,16.26
2023-05-09T18:18:32.314Z,16.18
2023-05-09T18:21:00.615Z,16.01
2023-05-09T18:23:30.352Z,16.05
2023-05-09T18:25:58.342Z,16.04
2023-05-09T18:28:27.486Z,15.97
2023-05-09T18:30:56.634Z,15.98
2023-05-09T18:33:26.515Z,15.97
2023-05-09T18:35:55.470Z,15.98
2023-05-09T18:38:23.794Z,15.91
2023-05-09T18:40:53.052Z,15.95
2023-05-09T18:43:21.627Z,15.94
2023-05-09T18:45:50.015Z,15.82
2023-05-09T18:48:17.970Z,15.86
2023-05-09T18:50:45.866Z,15.91
2023-05-09T18:53:13.898Z,15.85
2023-05-09T18:55:42.821Z,15.84
2023-05-09T18:58:12.353Z,15.82
2023-05-09T19:00:40.566Z,15.88
2023-05-09T19:03:08.679Z,15.72
2023-05-09T19:05:36.867Z,15.66
2023-05-09T19:08:05.008Z,15.65
2023-05-09T19:10:33.710Z,15.67
2023-05-09T19:13:01.999Z,15.62
2023-05-09T19:15:31.749Z,15.76
2023-05-09T19:17:59.712Z,15.73
2023-05-09T19:20:29.561Z,15.76
2023-05-09T19:22:57.494Z,15.81
2023-05-09T19:25:26.218Z,15.86
2023-05-09T19:27:54.193Z,15.76
2023-05-09T19:30:22.233Z,15.70
2023-05-09T19:32:51.857Z,15.74
2023-05-09T19:35:19.965Z,15.76
2023-05-09T19:37:48.345Z,15.79
2023-05-09T19:40:16.664Z,15.72
2023-05-09T19:42:45.877Z,15.69
2023-05-09T19:45:14.565Z,15.63
2023-05-09T19:47:42.898Z,15.21
2023-05-09T19:50:12.768Z,15.20
2023-05-09T19:52:41.309Z,15.20
2023-05-09T19:55:10.427Z,14.90
2023-05-09T19:57:38.790Z,14.53
2023-05-09T20:00:08.182Z,14.31
2023-05-09T20:02:36.542Z,13.95
2023-05-09T20:05:04.775Z,13.75
2023-05-09T20:07:34.305Z,13.67
2023-05-09T20:10:02.271Z,13.61
2023-05-09T20:12:30.524Z,13.51
2023-05-09T20:14:58.622Z,13.49
2023-05-09T20:17:26.568Z,13.42
2023-05-09T20:19:54.629Z,13.50
2023-05-09T20:22:22.507Z,13.52
2023-05-09T20:24:52.128Z,13.49
2023-05-09T20:27:20.088Z,13.48
2023-05-09T20:29:48.346Z,13.50
2023-05-09T20:32:16.590Z,13.40
2023-05-09T20:34:44.984Z,13.34
2023-05-09T20:37:13.155Z,13.33
2023-05-09T20:39:41.104Z,13.33
2023-05-09T20:42:10.454Z,13.26
2023-05-09T20:44:39.568Z,13.29
2023-05-09T20:47:07.465Z,13.33
2023-05-09T20:49:35.624Z,13.33
2023-05-09T20:52:03.552Z,13.25
2023-05-09T20:54:31.953Z,13.24
2023-05-09T20:56:59.818Z,13.23
2023-05-09T20:59:29.225Z,13.22
2023-05-09T21:01:57.265Z,13.14
2023-05-09T21:04:25.223Z,13.22
2023-05-09T21:06:53.060Z,13.21
2023-05-09T21:09:21.160Z,13.13
2023-05-09T21:11:49.442Z,13.13
2023-05-09T21:14:17.888Z,13.21
2023-05-09T21:16:47.513Z,13.22
2023-05-09T21:19:15.591Z,13.23
2023-05-09T21:21:43.563Z,13.21
2023-05-09T21:24:11.799Z,13.10
2023-05-09T21:26:39.919Z,13.08
2023-05-09T21:29:07.908Z,13.14
2023-05-09T21:31:36.435Z,13.16
2023-05-09T21:34:09.809Z,13.08
2023-05-09T21:36:38.487Z,13.10
2023-05-09T21:39:09.068Z,13.10
2023-05-09T21:41:37.389Z,13.19
2023-05-09T21:44:07.213Z,13.24
2023-05-09T21:46:35.926Z,13.12
2023-05-09T21:49:05.333Z,13.20
2023-05-09T21:51:33.352Z,13.12
2023-05-09T21:54:01.853Z,13.16
2023-05-09T21:56:29.685Z,13.22
2023-05-09T21:58:57.540Z,13.15
2023-05-09T22:01:25.503Z,13.16
2023-05-09T22:03:53.525Z,13.13
2023-05-09T22:06:22.934Z,13.10
2023-05-09T22:08:51.142Z,13.14
2023-05-09T22:11:19.096Z,13.21
2023-05-09T22:13:47.003Z,13.13
2023-05-09T22:16:14.958Z,13.17
2023-05-09T22:18:42.977Z,13.21
2023-05-09T22:21:10.895Z,13.20
2023-05-09T22:23:40.217Z,13.17
2023-05-09T22:26:08.117Z,13.02
2023-05-09T22:28:35.982Z,13.09
2023-05-09T22:31:06.395Z,13.00
2023-05-09T22:33:34.710Z,13.02
2023-05-09T22:36:02.594Z,12.89
2023-05-09T22:38:30.987Z,12.83
2023-05-09T22:41:00.262Z,12.82
2023-05-09T22:43:33.872Z,12.91
2023-05-09T22:46:07.009Z,12.75
2023-05-09T22:48:34.975Z,12.78
2023-05-09T22:51:05.523Z,12.80
2023-05-09T22:53:33.782Z,12.82
2023-05-09T22:56:03.047Z,12.79
2023-05-09T22:58:30.870Z,12.80
2023-05-09T23:00:58.883Z,12.95
2023-05-09T23:03:26.824Z,12.88
2023-05-09T23:05:54.661Z,12.84
2023-05-09T23:08:22.501Z,12.93
2023-05-09T23:10:50.296Z,12.84
2023-05-09T23:13:19.510Z,12.77
2023-05-09T23:15:48.042Z,12.78
2023-05-09T23:18:15.916Z,12.79
2023-05-09T23:20:43.767Z,12.71
2023-05-09T23:23:11.686Z,12.81
2023-05-09T23:25:40.005Z,12.81
2023-05-09T23:28:07.830Z,12.80
2023-05-09T23:30:37.094Z,12.78
2023-05-09T23:33:05.100Z,12.87
2023-05-09T23:35:32.940Z,12.92
2023-05-09T23:38:00.923Z,12.94
2023-05-09T23:40:28.734Z,12.96
2023-05-09T23:42:56.794Z,12.90
2023-05-09T23:45:24.593Z,12.90
2023-05-09T23:47:53.939Z,12.92
2023-05-09T23:50:22.130Z,12.87
2023-05-09T23:52:51.063Z,12.89
2023-05-09T23:55:19.126Z,12.81
2023-05-09T23:57:47.060Z,12.88
